sensor_id;sensor_type;location;lat;lon;timestamp;pressure;altitude;pressure_sealevel;temperature;humidity
31092;BME280;17747;51.070;10.930;2022-11-27T00:01:18;102177.84;;;6.45;77.24
31092;BME280;17747;51.070;10.930;2022-11-27T00:02:50;102175.63;;;6.71;76.01
31092;BME280;17747;51.070;10.930;2022-11-27T00:04:21;102179.47;;;6.96;74.95
31092;BME280;17747;51.070;10.930;2022-11-27T00:05:53;102183.06;;;7.01;74.51
31092;BME280;17747;51.070;10.930;2022-11-27T00:07:25;102179.84;;;6.61;75.41
31092;BME280;17747;51.070;10.930;2022-11-27T00:08:57;102182.78;;;6.82;75.43
31092;BME280;17747;51.070;10.930;2022-11-27T00:10:29;102183.63;;;6.78;75.06
31092;BME280;17747;51.070;10.930;2022-11-27T00:12:00;102176.13;;;6.47;75.88
31092;BME280;17747;51.070;10.930;2022-11-27T00:13:32;102179.31;;;6.83;75.19
31092;BME280;17747;51.070;10.930;2022-11-27T00:15:02;102175.88;;;6.87;74.65
31092;BME280;17747;51.070;10.930;2022-11-27T00:16:35;102171.34;;;6.77;75.32
31092;BME280;17747;51.070;10.930;2022-11-27T00:18:07;102173.25;;;6.87;74.68
31092;BME280;17747;51.070;10.930;2022-11-27T00:19:37;102171.19;;;6.67;74.84
31092;BME280;17747;51.070;10.930;2022-11-27T00:21:09;102173.72;;;6.62;75.65
31092;BME280;17747;51.070;10.930;2022-11-27T00:22:42;102171.03;;;6.56;76.25
31092;BME280;17747;51.070;10.930;2022-11-27T00:24:13;102175.56;;;6.66;75.60
31092;BME280;17747;51.070;10.930;2022-11-27T00:25:48;102175.38;;;6.54;76.16
31092;BME280;17747;51.070;10.930;2022-11-27T00:27:20;102171.97;;;6.61;76.09
31092;BME280;17747;51.070;10.930;2022-11-27T00:28:51;102174.56;;;6.58;76.06
31092;BME280;17747;51.070;10.930;2022-11-27T00:30:23;102173.28;;;6.90;75.21
31092;BME280;17747;51.070;10.930;2022-11-27T00:31:56;102163.81;;;7.03;74.58
31092;BME280;17747;51.070;10.930;2022-11-27T00:33:27;102169.63;;;6.81;74.94
31092;BME280;17747;51.070;10.930;2022-11-27T00:34:59;102168.84;;;6.86;74.80
31092;BME280;17747;51.070;10.930;2022-11-27T00:36:31;102169.44;;;6.67;75.09
31092;BME280;17747;51.070;10.930;2022-11-27T00:38:03;102166.81;;;6.67;75.35
31092;BME280;17747;51.070;10.930;2022-11-27T00:39:34;102166.81;;;6.67;75.46
31092;BME280;17747;51.070;10.930;2022-11-27T00:41:06;102167.31;;;6.42;76.32
31092;BME280;17747;51.070;10.930;2022-11-27T00:42:37;102156.91;;;6.49;75.81
31092;BME280;17747;51.070;10.930;2022-11-27T00:44:09;102171.16;;;6.63;75.58
31092;BME280;17747;51.070;10.930;2022-11-27T00:45:41;102169.59;;;6.76;75.48
31092;BME280;17747;51.070;10.930;2022-11-27T00:47:14;102165.75;;;6.53;75.65
31092;BME280;17747;51.070;10.930;2022-11-27T00:48:45;102158.09;;;6.15;76.93
31092;BME280;17747;51.070;10.930;2022-11-27T00:50:17;102157.44;;;6.28;76.93
31092;BME280;17747;51.070;10.930;2022-11-27T00:51:48;102152.97;;;6.20;77.46
31092;BME280;17747;51.070;10.930;2022-11-27T00:53:20;102149.53;;;6.25;77.18
31092;BME280;17747;51.070;10.930;2022-11-27T00:54:51;102147.09;;;6.36;76.74
31092;BME280;17747;51.070;10.930;2022-11-27T00:56:23;102149.91;;;6.48;76.62
31092;BME280;17747;51.070;10.930;2022-11-27T00:57:55;102148.28;;;6.56;76.29
31092;BME280;17747;51.070;10.930;2022-11-27T00:59:26;102149.75;;;6.39;76.17
31092;BME280;17747;51.070;10.930;2022-11-27T01:00:59;102155.78;;;6.33;76.74
31092;BME280;17747;51.070;10.930;2022-11-27T01:02:32;102150.69;;;6.41;76.61
31092;BME280;17747;51.070;10.930;2022-11-27T01:04:04;102150.72;;;6.44;76.49
31092;BME280;17747;51.070;10.930;2022-11-27T01:05:36;102149.00;;;6.48;75.91
31092;BME280;17747;51.070;10.930;2022-11-27T01:07:06;102152.16;;;6.25;76.62
31092;BME280;17747;51.070;10.930;2022-11-27T01:08:38;102155.75;;;6.30;77.02
31092;BME280;17747;51.070;10.930;2022-11-27T01:10:10;102145.06;;;6.18;77.13
31092;BME280;17747;51.070;10.930;2022-11-27T01:11:42;102145.88;;;6.17;77.38
31092;BME280;17747;51.070;10.930;2022-11-27T01:13:13;102144.19;;;6.19;77.23
31092;BME280;17747;51.070;10.930;2022-11-27T01:14:45;102139.00;;;6.22;77.09
31092;BME280;17747;51.070;10.930;2022-11-27T01:16:17;102132.69;;;6.11;77.52
31092;BME280;17747;51.070;10.930;2022-11-27T01:17:50;102132.38;;;5.93;77.93
31092;BME280;17747;51.070;10.930;2022-11-27T01:19:22;102122.66;;;5.87;78.47
31092;BME280;17747;51.070;10.930;2022-11-27T01:20:53;102125.34;;;5.92;78.32
31092;BME280;17747;51.070;10.930;2022-11-27T01:22:25;102120.28;;;6.01;78.44
31092;BME280;17747;51.070;10.930;2022-11-27T01:23:57;102122.03;;;6.02;78.14
31092;BME280;17747;51.070;10.930;2022-11-27T01:25:28;102125.44;;;5.96;78.21
31092;BME280;17747;51.070;10.930;2022-11-27T01:26:59;102117.31;;;5.81;78.42
31092;BME280;17747;51.070;10.930;2022-11-27T01:28:30;102117.44;;;5.89;78.47
31092;BME280;17747;51.070;10.930;2022-11-27T01:30:01;102115.78;;;5.94;78.41
31092;BME280;17747;51.070;10.930;2022-11-27T01:31:33;102118.34;;;5.91;78.16
31092;BME280;17747;51.070;10.930;2022-11-27T01:33:05;102109.56;;;5.89;78.28
31092;BME280;17747;51.070;10.930;2022-11-27T01:34:37;102117.59;;;5.98;78.04
31092;BME280;17747;51.070;10.930;2022-11-27T01:36:09;102115.56;;;5.82;78.45
31092;BME280;17747;51.070;10.930;2022-11-27T01:37:40;102108.66;;;5.87;78.56
31092;BME280;17747;51.070;10.930;2022-11-27T01:39:13;102107.16;;;6.01;78.19
31092;BME280;17747;51.070;10.930;2022-11-27T01:40:44;102103.97;;;6.19;77.42
31092;BME280;17747;51.070;10.930;2022-11-27T01:42:15;102105.72;;;6.20;76.93
31092;BME280;17747;51.070;10.930;2022-11-27T01:43:47;102112.69;;;6.18;77.01
31092;BME280;17747;51.070;10.930;2022-11-27T01:45:19;102104.03;;;6.25;76.87
31092;BME280;17747;51.070;10.930;2022-11-27T01:46:51;102099.72;;;6.28;76.63
31092;BME280;17747;51.070;10.930;2022-11-27T01:48:25;102097.22;;;6.38;76.56
31092;BME280;17747;51.070;10.930;2022-11-27T01:50:00;102092.53;;;6.17;76.66
31092;BME280;17747;51.070;10.930;2022-11-27T01:51:32;102081.03;;;6.07;77.02
31092;BME280;17747;51.070;10.930;2022-11-27T01:53:05;102088.81;;;6.02;77.58
31092;BME280;17747;51.070;10.930;2022-11-27T01:54:38;102080.59;;;6.36;76.81
31092;BME280;17747;51.070;10.930;2022-11-27T01:56:11;102087.19;;;6.68;75.58
31092;BME280;17747;51.070;10.930;2022-11-27T01:57:44;102089.06;;;6.77;74.78
31092;BME280;17747;51.070;10.930;2022-11-27T01:59:16;102081.78;;;6.57;74.92
31092;BME280;17747;51.070;10.930;2022-11-27T02:00:48;102082.28;;;6.30;75.93
31092;BME280;17747;51.070;10.930;2022-11-27T02:02:19;102084.63;;;6.15;76.50
31092;BME280;17747;51.070;10.930;2022-11-27T02:03:52;102081.81;;;6.03;77.12
31092;BME280;17747;51.070;10.930;2022-11-27T02:05:26;102086.38;;;6.15;76.85
31092;BME280;17747;51.070;10.930;2022-11-27T02:06:58;102086.41;;;6.16;76.72
31092;BME280;17747;51.070;10.930;2022-11-27T02:08:30;102093.34;;;6.11;76.97
31092;BME280;17747;51.070;10.930;2022-11-27T02:10:02;102099.47;;;6.13;76.97
31092;BME280;17747;51.070;10.930;2022-11-27T02:11:35;102097.75;;;6.15;76.93
31092;BME280;17747;51.070;10.930;2022-11-27T02:13:10;102099.47;;;6.13;76.86
31092;BME280;17747;51.070;10.930;2022-11-27T02:14:43;102103.09;;;6.18;76.83
31092;BME280;17747;51.070;10.930;2022-11-27T02:16:20;102100.13;;;6.56;75.82
31092;BME280;17747;51.070;10.930;2022-11-27T02:17:58;102094.94;;;6.60;75.17
31092;BME280;17747;51.070;10.930;2022-11-27T02:19:37;102097.84;;;6.82;74.50
31092;BME280;17747;51.070;10.930;2022-11-27T02:21:13;102100.34;;;6.71;74.55
31092;BME280;17747;51.070;10.930;2022-11-27T02:22:53;102106.50;;;6.73;74.58
31092;BME280;17747;51.070;10.930;2022-11-27T02:24:40;102103.03;;;6.76;74.27
31092;BME280;17747;51.070;10.930;2022-11-27T02:28:22;102114.03;;;6.49;75.12
31092;BME280;17747;51.070;10.930;2022-11-27T02:29:56;102117.47;;;6.43;75.21
31092;BME280;17747;51.070;10.930;2022-11-27T02:31:33;102109.09;;;6.70;74.88
31092;BME280;17747;51.070;10.930;2022-11-27T02:33:08;102113.63;;;6.83;74.38
31092;BME280;17747;51.070;10.930;2022-11-27T02:34:42;102108.91;;;6.58;74.60
31092;BME280;17747;51.070;10.930;2022-11-27T02:36:17;102109.94;;;6.68;74.63
31092;BME280;17747;51.070;10.930;2022-11-27T02:37:52;102109.22;;;6.79;74.22
31092;BME280;17747;51.070;10.930;2022-11-27T02:39:27;102110.59;;;6.53;75.07
31092;BME280;17747;51.070;10.930;2022-11-27T02:41:03;102109.16;;;6.75;74.53
31092;BME280;17747;51.070;10.930;2022-11-27T02:42:36;102106.72;;;6.88;74.16
31092;BME280;17747;51.070;10.930;2022-11-27T02:44:09;102100.25;;;6.63;74.76
31092;BME280;17747;51.070;10.930;2022-11-27T02:45:43;102101.72;;;6.45;75.57
31092;BME280;17747;51.070;10.930;2022-11-27T02:47:16;102103.25;;;6.30;75.47
31092;BME280;17747;51.070;10.930;2022-11-27T02:48:49;102097.25;;;6.39;75.73
31092;BME280;17747;51.070;10.930;2022-11-27T02:50:22;102091.75;;;6.21;75.98
31092;BME280;17747;51.070;10.930;2022-11-27T02:51:55;102094.69;;;6.41;75.48
31092;BME280;17747;51.070;10.930;2022-11-27T02:53:28;102093.63;;;6.29;76.13
31092;BME280;17747;51.070;10.930;2022-11-27T02:55:03;102090.47;;;6.53;75.19
31092;BME280;17747;51.070;10.930;2022-11-27T02:56:35;102090.31;;;6.41;74.82
31092;BME280;17747;51.070;10.930;2022-11-27T02:58:07;102095.72;;;6.52;75.27
31092;BME280;17747;51.070;10.930;2022-11-27T02:59:40;102085.81;;;6.34;75.48
31092;BME280;17747;51.070;10.930;2022-11-27T03:01:14;102087.00;;;5.97;76.23
31092;BME280;17747;51.070;10.930;2022-11-27T03:02:48;102081.22;;;6.18;76.24
31092;BME280;17747;51.070;10.930;2022-11-27T03:04:22;102072.16;;;5.99;76.59
31092;BME280;17747;51.070;10.930;2022-11-27T03:05:57;102079.09;;;5.95;76.84
31092;BME280;17747;51.070;10.930;2022-11-27T03:07:32;102078.31;;;6.02;76.63
31092;BME280;17747;51.070;10.930;2022-11-27T03:09:06;102081.81;;;6.03;76.75
31092;BME280;17747;51.070;10.930;2022-11-27T03:10:39;102082.13;;;6.21;76.37
31092;BME280;17747;51.070;10.930;2022-11-27T03:12:12;102085.50;;;6.14;76.09
31092;BME280;17747;51.070;10.930;2022-11-27T03:13:46;102081.94;;;6.09;76.53
31092;BME280;17747;51.070;10.930;2022-11-27T03:15:19;102081.94;;;6.09;76.24
31092;BME280;17747;51.070;10.930;2022-11-27T03:16:56;102078.50;;;6.13;76.12
31092;BME280;17747;51.070;10.930;2022-11-27T03:18:31;102085.16;;;5.93;76.73
31092;BME280;17747;51.070;10.930;2022-11-27T03:20:08;102076.19;;;5.79;77.26
31092;BME280;17747;51.070;10.930;2022-11-27T03:21:41;102077.84;;;5.73;77.66
31092;BME280;17747;51.070;10.930;2022-11-27T03:23:13;102067.41;;;5.77;77.65
31092;BME280;17747;51.070;10.930;2022-11-27T03:24:45;102070.72;;;5.66;77.88
31092;BME280;17747;51.070;10.930;2022-11-27T03:26:18;102074.00;;;5.53;78.30
31092;BME280;17747;51.070;10.930;2022-11-27T03:27:53;102069.50;;;5.48;78.64
31092;BME280;17747;51.070;10.930;2022-11-27T03:29:26;102069.53;;;5.49;78.84
31092;BME280;17747;51.070;10.930;2022-11-27T03:30:58;102069.66;;;5.55;78.42
31092;BME280;17747;51.070;10.930;2022-11-27T03:32:31;102072.53;;;5.70;77.92
31092;BME280;17747;51.070;10.930;2022-11-27T03:34:03;102072.56;;;5.72;77.60
31092;BME280;17747;51.070;10.930;2022-11-27T03:35:35;102063.75;;;5.68;77.90
31092;BME280;17747;51.070;10.930;2022-11-27T03:37:07;102062.88;;;5.68;77.99
31092;BME280;17747;51.070;10.930;2022-11-27T03:38:38;102067.19;;;5.63;77.94
31092;BME280;17747;51.070;10.930;2022-11-27T03:40:10;102068.16;;;5.71;77.78
31092;BME280;17747;51.070;10.930;2022-11-27T03:41:43;102062.91;;;5.69;77.77
31092;BME280;17747;51.070;10.930;2022-11-27T03:43:20;102066.41;;;5.70;77.69
31092;BME280;17747;51.070;10.930;2022-11-27T03:44:55;102060.34;;;5.72;77.55
31092;BME280;17747;51.070;10.930;2022-11-27T03:46:34;102050.81;;;5.78;77.29
31092;BME280;17747;51.070;10.930;2022-11-27T03:48:15;102043.97;;;5.36;78.51
31092;BME280;17747;51.070;10.930;2022-11-27T03:49:53;102044.53;;;5.21;78.99
31092;BME280;17747;51.070;10.930;2022-11-27T03:51:29;102037.72;;;5.31;79.12
31092;BME280;17747;51.070;10.930;2022-11-27T03:53:07;102043.66;;;5.21;79.51
31092;BME280;17747;51.070;10.930;2022-11-27T03:54:42;102040.13;;;5.18;79.34
31092;BME280;17747;51.070;10.930;2022-11-27T03:56:19;102042.00;;;5.26;79.22
31092;BME280;17747;51.070;10.930;2022-11-27T03:57:53;102045.53;;;5.28;79.21
31092;BME280;17747;51.070;10.930;2022-11-27T03:59:29;102040.97;;;5.16;79.23
31092;BME280;17747;51.070;10.930;2022-11-27T04:01:02;102040.41;;;5.34;78.82
31092;BME280;17747;51.070;10.930;2022-11-27T04:02:38;102035.31;;;5.40;78.43
31092;BME280;17747;51.070;10.930;2022-11-27T04:04:11;102046.94;;;5.56;77.50
31092;BME280;17747;51.070;10.930;2022-11-27T04:05:43;102043.66;;;5.67;77.03
31092;BME280;17747;51.070;10.930;2022-11-27T04:07:14;102047.94;;;5.61;76.65
31092;BME280;17747;51.070;10.930;2022-11-27T04:08:46;102044.31;;;5.54;76.86
31092;BME280;17747;51.070;10.930;2022-11-27T04:10:17;102042.72;;;5.64;76.80
31092;BME280;17747;51.070;10.930;2022-11-27T04:11:49;102045.81;;;5.41;76.88
31092;BME280;17747;51.070;10.930;2022-11-27T04:13:20;102042.81;;;5.23;77.67
31092;BME280;17747;51.070;10.930;2022-11-27T04:14:52;102046.94;;;5.10;78.30
31092;BME280;17747;51.070;10.930;2022-11-27T04:16:23;102050.38;;;5.06;78.68
31092;BME280;17747;51.070;10.930;2022-11-27T04:17:54;102050.44;;;5.09;78.61
31092;BME280;17747;51.070;10.930;2022-11-27T04:19:27;102050.63;;;5.20;78.19
31092;BME280;17747;51.070;10.930;2022-11-27T04:20:59;102052.00;;;5.01;78.71
31092;BME280;17747;51.070;10.930;2022-11-27T04:22:30;102052.03;;;5.46;77.85
31092;BME280;17747;51.070;10.930;2022-11-27T04:24:02;102047.81;;;5.09;78.08
31092;BME280;17747;51.070;10.930;2022-11-27T04:25:33;102050.59;;;5.18;78.11
31092;BME280;17747;51.070;10.930;2022-11-27T04:27:05;102051.63;;;5.27;77.49
31092;BME280;17747;51.070;10.930;2022-11-27T04:28:36;102052.13;;;5.07;77.63
31092;BME280;17747;51.070;10.930;2022-11-27T04:30:08;102049.03;;;5.28;77.71
31092;BME280;17747;51.070;10.930;2022-11-27T04:31:40;102052.38;;;5.20;77.63
31092;BME280;17747;51.070;10.930;2022-11-27T04:33:11;102052.38;;;5.20;77.27
31092;BME280;17747;51.070;10.930;2022-11-27T04:34:44;102041.66;;;5.07;77.40
31092;BME280;17747;51.070;10.930;2022-11-27T04:36:15;102049.25;;;4.94;77.90
31092;BME280;17747;51.070;10.930;2022-11-27T04:37:47;102043.81;;;4.83;78.91
31092;BME280;17747;51.070;10.930;2022-11-27T04:39:18;102044.94;;;4.97;78.41
31092;BME280;17747;51.070;10.930;2022-11-27T04:40:50;102051.81;;;4.92;78.28
31092;BME280;17747;51.070;10.930;2022-11-27T04:42:21;102044.03;;;4.95;77.88
31092;BME280;17747;51.070;10.930;2022-11-27T04:43:53;102054.09;;;5.19;77.05
31092;BME280;17747;51.070;10.930;2022-11-27T04:45:24;102054.75;;;5.07;76.81
31092;BME280;17747;51.070;10.930;2022-11-27T04:46:56;102053.94;;;5.10;76.73
31092;BME280;17747;51.070;10.930;2022-11-27T04:48:26;102055.22;;;5.32;76.23
31092;BME280;17747;51.070;10.930;2022-11-27T04:49:59;102067.97;;;5.59;75.19
31092;BME280;17747;51.070;10.930;2022-11-27T04:51:30;102064.59;;;5.66;74.35
31092;BME280;17747;51.070;10.930;2022-11-27T04:53:01;102061.56;;;5.43;74.17
31092;BME280;17747;51.070;10.930;2022-11-27T04:54:33;102062.19;;;5.30;74.61
31092;BME280;17747;51.070;10.930;2022-11-27T04:56:04;102056.44;;;4.62;76.00
31092;BME280;17747;51.070;10.930;2022-11-27T04:57:36;102060.97;;;5.14;76.27
31092;BME280;17747;51.070;10.930;2022-11-27T04:59:07;102062.00;;;5.21;74.35
31092;BME280;17747;51.070;10.930;2022-11-27T05:00:39;102054.28;;;4.83;75.04
31092;BME280;17747;51.070;10.930;2022-11-27T05:02:10;102046.16;;;4.71;75.23
31092;BME280;17747;51.070;10.930;2022-11-27T05:03:40;102050.94;;;4.92;74.84
31092;BME280;17747;51.070;10.930;2022-11-27T05:05:13;102055.31;;;4.50;75.47
31092;BME280;17747;51.070;10.930;2022-11-27T05:06:46;102054.13;;;4.36;76.38
31092;BME280;17747;51.070;10.930;2022-11-27T05:08:17;102048.81;;;4.33;76.49
31092;BME280;17747;51.070;10.930;2022-11-27T05:09:49;102047.09;;;4.35;75.91
31092;BME280;17747;51.070;10.930;2022-11-27T05:11:20;102043.31;;;4.60;74.60
31092;BME280;17747;51.070;10.930;2022-11-27T05:12:52;102045.41;;;4.78;74.39
31092;BME280;17747;51.070;10.930;2022-11-27T05:14:23;102051.94;;;4.98;73.72
31092;BME280;17747;51.070;10.930;2022-11-27T05:15:58;102047.72;;;5.05;73.02
31092;BME280;17747;51.070;10.930;2022-11-27T05:17:29;102048.19;;;4.84;73.53
31092;BME280;17747;51.070;10.930;2022-11-27T05:19:01;102047.22;;;4.80;74.04
31092;BME280;17747;51.070;10.930;2022-11-27T05:20:33;102049.50;;;4.64;73.94
31092;BME280;17747;51.070;10.930;2022-11-27T05:22:05;102046.38;;;4.41;75.66
31092;BME280;17747;51.070;10.930;2022-11-27T05:23:36;102042.84;;;4.39;76.11
31092;BME280;17747;51.070;10.930;2022-11-27T05:25:08;102036.34;;;4.61;75.33
31092;BME280;17747;51.070;10.930;2022-11-27T05:26:40;102040.22;;;4.39;76.36
31092;BME280;17747;51.070;10.930;2022-11-27T05:28:11;102040.09;;;4.34;76.54
31092;BME280;17747;51.070;10.930;2022-11-27T05:29:43;102039.72;;;4.16;77.64
31092;BME280;17747;51.070;10.930;2022-11-27T05:31:14;102033.88;;;4.27;77.69
31092;BME280;17747;51.070;10.930;2022-11-27T05:32:46;102031.69;;;4.08;78.13
31092;BME280;17747;51.070;10.930;2022-11-27T05:34:17;102035.34;;;4.15;77.98
31092;BME280;17747;51.070;10.930;2022-11-27T05:35:50;102030.56;;;3.98;78.80
31092;BME280;17747;51.070;10.930;2022-11-27T05:37:20;102038.59;;;4.05;79.00
31092;BME280;17747;51.070;10.930;2022-11-27T05:38:52;102041.53;;;4.20;79.00
31092;BME280;17747;51.070;10.930;2022-11-27T05:40:23;102043.38;;;4.24;78.57
31092;BME280;17747;51.070;10.930;2022-11-27T05:41:55;102040.84;;;4.27;77.86
31092;BME280;17747;51.070;10.930;2022-11-27T05:43:27;102036.72;;;4.37;78.06
31092;BME280;17747;51.070;10.930;2022-11-27T05:44:58;102031.78;;;4.13;78.19
31092;BME280;17747;51.070;10.930;2022-11-27T05:46:29;102029.56;;;3.92;78.71
31092;BME280;17747;51.070;10.930;2022-11-27T05:48:00;102031.19;;;3.88;78.80
31092;BME280;17747;51.070;10.930;2022-11-27T05:49:31;102033.03;;;3.91;78.92
31092;BME280;17747;51.070;10.930;2022-11-27T05:51:04;102024.88;;;3.79;79.61
31092;BME280;17747;51.070;10.930;2022-11-27T05:52:36;102016.50;;;3.92;79.22
31092;BME280;17747;51.070;10.930;2022-11-27T05:54:08;102021.28;;;3.74;79.18
31092;BME280;17747;51.070;10.930;2022-11-27T05:55:39;102013.25;;;3.67;79.10
31092;BME280;17747;51.070;10.930;2022-11-27T05:57:11;102013.25;;;3.67;79.31
31092;BME280;17747;51.070;10.930;2022-11-27T05:58:43;102018.56;;;3.69;79.19
31092;BME280;17747;51.070;10.930;2022-11-27T06:00:14;102022.69;;;3.61;79.28
31092;BME280;17747;51.070;10.930;2022-11-27T06:01:46;102020.75;;;3.88;78.65
31092;BME280;17747;51.070;10.930;2022-11-27T06:03:18;102017.66;;;4.05;78.01
31092;BME280;17747;51.070;10.930;2022-11-27T06:04:49;102020.94;;;3.96;77.65
31092;BME280;17747;51.070;10.930;2022-11-27T06:06:22;102032.88;;;3.85;77.63
31092;BME280;17747;51.070;10.930;2022-11-27T06:07:53;102031.66;;;3.70;78.04
31092;BME280;17747;51.070;10.930;2022-11-27T06:09:25;102029.75;;;3.65;78.23
31092;BME280;17747;51.070;10.930;2022-11-27T06:10:56;102021.09;;;3.67;78.03
31092;BME280;17747;51.070;10.930;2022-11-27T06:12:27;102019.16;;;3.59;77.92
31092;BME280;17747;51.070;10.930;2022-11-27T06:13:58;102015.72;;;3.27;78.62
31092;BME280;17747;51.070;10.930;2022-11-27T06:15:29;102016.13;;;3.42;78.92
31092;BME280;17747;51.070;10.930;2022-11-27T06:17:00;102016.81;;;3.69;77.96
31092;BME280;17747;51.070;10.930;2022-11-27T06:18:31;102019.16;;;3.59;77.56
31092;BME280;17747;51.070;10.930;2022-11-27T06:20:03;102018.78;;;3.45;77.94
31092;BME280;17747;51.070;10.930;2022-11-27T06:21:36;102024.75;;;3.39;77.93
31092;BME280;17747;51.070;10.930;2022-11-27T06:23:08;102020.66;;;3.49;77.96
31092;BME280;17747;51.070;10.930;2022-11-27T06:24:38;102020.06;;;3.26;78.41
31092;BME280;17747;51.070;10.930;2022-11-27T06:26:13;102017.88;;;3.10;78.50
31092;BME280;17747;51.070;10.930;2022-11-27T06:27:45;102018.13;;;3.19;78.00
31092;BME280;17747;51.070;10.930;2022-11-27T06:29:17;102020.47;;;3.10;78.16
31092;BME280;17747;51.070;10.930;2022-11-27T06:30:48;102015.47;;;3.18;78.16
31092;BME280;17747;51.070;10.930;2022-11-27T06:32:20;102017.81;;;3.07;78.35
31092;BME280;17747;51.070;10.930;2022-11-27T06:33:51;102013.75;;;3.18;78.05
31092;BME280;17747;51.070;10.930;2022-11-27T06:35:23;102014.34;;;3.08;77.99
31092;BME280;17747;51.070;10.930;2022-11-27T06:36:56;102018.59;;;3.04;77.89
31092;BME280;17747;51.070;10.930;2022-11-27T06:38:28;102008.53;;;2.88;78.17
31092;BME280;17747;51.070;10.930;2022-11-27T06:39:58;102016.03;;;3.06;78.50
31092;BME280;17747;51.070;10.930;2022-11-27T06:41:30;102008.47;;;2.85;78.61
31092;BME280;17747;51.070;10.930;2022-11-27T06:43:02;102000.13;;;2.67;78.90
31092;BME280;17747;51.070;10.930;2022-11-27T06:44:33;102005.97;;;2.58;79.26
31092;BME280;17747;51.070;10.930;2022-11-27T06:46:06;102004.16;;;2.55;79.60
31092;BME280;17747;51.070;10.930;2022-11-27T06:47:37;102003.84;;;2.76;79.24
31092;BME280;17747;51.070;10.930;2022-11-27T06:49:09;102007.78;;;2.91;78.44
31092;BME280;17747;51.070;10.930;2022-11-27T06:50:40;102007.50;;;2.81;78.10
31092;BME280;17747;51.070;10.930;2022-11-27T06:52:13;102009.94;;;3.05;77.81
31092;BME280;17747;51.070;10.930;2022-11-27T06:53:44;102011.22;;;3.21;77.08
31092;BME280;17747;51.070;10.930;2022-11-27T06:55:16;102003.59;;;3.29;76.74
31092;BME280;17747;51.070;10.930;2022-11-27T06:56:48;101999.78;;;3.16;76.58
31092;BME280;17747;51.070;10.930;2022-11-27T06:58:19;101998.56;;;3.03;76.74
31092;BME280;17747;51.070;10.930;2022-11-27T06:59:49;102004.63;;;3.02;76.85
31092;BME280;17747;51.070;10.930;2022-11-27T07:01:21;102009.19;;;3.11;76.40
31092;BME280;17747;51.070;10.930;2022-11-27T07:02:53;101994.75;;;2.91;76.93
31092;BME280;17747;51.070;10.930;2022-11-27T07:04:25;102002.06;;;3.04;76.90
31092;BME280;17747;51.070;10.930;2022-11-27T07:05:58;101998.94;;;2.87;76.90
31092;BME280;17747;51.070;10.930;2022-11-27T07:07:31;102006.81;;;2.89;77.48
31092;BME280;17747;51.070;10.930;2022-11-27T07:09:02;101996.72;;;2.69;77.76
31092;BME280;17747;51.070;10.930;2022-11-27T07:10:34;101999.41;;;2.72;78.08
31092;BME280;17747;51.070;10.930;2022-11-27T07:12:06;102003.00;;;2.77;78.49
31092;BME280;17747;51.070;10.930;2022-11-27T07:13:38;102001.59;;;2.89;78.64
31092;BME280;17747;51.070;10.930;2022-11-27T07:15:09;102001.44;;;2.82;78.15
31092;BME280;17747;51.070;10.930;2022-11-27T07:16:41;101996.38;;;2.89;77.87
31092;BME280;17747;51.070;10.930;2022-11-27T07:18:12;101996.22;;;2.82;77.73
31092;BME280;17747;51.070;10.930;2022-11-27T07:19:43;101996.38;;;2.89;78.08
31092;BME280;17747;51.070;10.930;2022-11-27T07:21:15;101992.94;;;2.90;77.86
31092;BME280;17747;51.070;10.930;2022-11-27T07:22:48;101988.13;;;2.73;78.74
31092;BME280;17747;51.070;10.930;2022-11-27T07:24:19;101995.00;;;2.70;78.86
31092;BME280;17747;51.070;10.930;2022-11-27T07:25:51;101997.47;;;2.95;78.30
31092;BME280;17747;51.070;10.930;2022-11-27T07:27:22;101995.16;;;3.06;77.68
31092;BME280;17747;51.070;10.930;2022-11-27T07:28:54;101991.47;;;2.99;77.54
31092;BME280;17747;51.070;10.930;2022-11-27T07:30:25;102003.19;;;3.13;77.19
31092;BME280;17747;51.070;10.930;2022-11-27T07:31:57;101998.00;;;3.15;77.22
31092;BME280;17747;51.070;10.930;2022-11-27T07:33:28;101997.91;;;2.80;77.76
31092;BME280;17747;51.070;10.930;2022-11-27T07:34:59;101992.84;;;2.87;77.96
31092;BME280;17747;51.070;10.930;2022-11-27T07:36:31;101985.38;;;2.99;77.65
31092;BME280;17747;51.070;10.930;2022-11-27T07:38:04;101979.50;;;2.76;77.59
31092;BME280;17747;51.070;10.930;2022-11-27T07:39:35;101974.19;;;2.73;78.02
31092;BME280;17747;51.070;10.930;2022-11-27T07:41:07;101979.44;;;2.74;78.01
31092;BME280;17747;51.070;10.930;2022-11-27T07:42:38;101967.25;;;2.73;78.66
31092;BME280;17747;51.070;10.930;2022-11-27T07:44:10;101963.16;;;2.51;79.18
31092;BME280;17747;51.070;10.930;2022-11-27T07:45:41;101966.66;;;2.52;79.72
31092;BME280;17747;51.070;10.930;2022-11-27T07:47:12;101973.72;;;2.56;80.08
31092;BME280;17747;51.070;10.930;2022-11-27T07:48:44;101965.84;;;2.54;79.94
31092;BME280;17747;51.070;10.930;2022-11-27T07:50:15;101968.81;;;2.67;79.91
31092;BME280;17747;51.070;10.930;2022-11-27T07:51:47;101965.47;;;2.72;79.78
31092;BME280;17747;51.070;10.930;2022-11-27T07:53:20;101975.41;;;2.85;79.12
31092;BME280;17747;51.070;10.930;2022-11-27T07:54:51;101975.47;;;2.89;78.78
31092;BME280;17747;51.070;10.930;2022-11-27T07:56:22;101976.72;;;2.70;79.46
31092;BME280;17747;51.070;10.930;2022-11-27T07:57:54;101963.41;;;2.61;79.88
31092;BME280;17747;51.070;10.930;2022-11-27T07:59:25;101966.47;;;2.77;79.45
31092;BME280;17747;51.070;10.930;2022-11-27T08:00:57;101960.88;;;2.64;79.50
31092;BME280;17747;51.070;10.930;2022-11-27T08:02:28;101960.03;;;2.65;79.85
31092;BME280;17747;51.070;10.930;2022-11-27T08:03:59;101964.25;;;2.60;80.10
31092;BME280;17747;51.070;10.930;2022-11-27T08:05:32;101966.25;;;2.68;79.76